Time;durP1;ratioP1;P1;durP2;ratioP2;P2;SDS_P1;SDS_P2;PMS_P1;PMS_P2;Temp;Humidity;BMP_temperature;BMP_pressure;BME280_temperature;BME280_humidity;BME280_pressure;Samples;Min_cycle;Max_cycle;Signal;HPM_P1;HPM_P2
2023/05/21 00:02:10;;;;;;;12.38;5.47;;;13.70;99.90;;;;;;5036352;28;20035;-73
2023/05/21 00:04:39;;;;;;;12.98;5.88;;;13.70;99.90;;;;;;5026853;28;20022;-73
2023/05/21 00:07:05;;;;;;;8.05;6.07;;;13.80;99.90;;;;;;5038369;28;20466;-72
2023/05/21 00:09:31;;;;;;;11.35;6.65;;;13.80;99.90;;;;;;5030299;28;20113;-72
2023/05/21 00:11:57;;;;;;;10.02;6.47;;;13.70;99.90;;;;;;5021342;28;20072;-72
2023/05/21 00:14:22;;;;;;;10.85;6.55;;;13.70;99.90;;;;;;5038429;28;20095;-71
2023/05/21 00:16:48;;;;;;;9.07;6.07;;;13.70;99.90;;;;;;5036144;28;20116;-72
2023/05/21 00:19:14;;;;;;;11.57;6.45;;;13.70;99.90;;;;;;5038023;28;20077;-73
2023/05/21 00:21:39;;;;;;;11.27;6.43;;;13.70;99.90;;;;;;5036333;28;20478;-72
2023/05/21 00:24:05;;;;;;;7.82;6.35;;;13.70;99.90;;;;;;5037457;28;20394;-72
2023/05/21 00:26:31;;;;;;;7.57;5.80;;;13.70;99.90;;;;;;5038071;28;20048;-72
2023/05/21 00:28:57;;;;;;;10.10;5.80;;;13.70;99.90;;;;;;5038214;28;20029;-71
2023/05/21 00:31:22;;;;;;;10.00;7.32;;;13.70;99.90;;;;;;5036402;28;20033;-72
2023/05/21 00:33:48;;;;;;;10.43;6.20;;;13.60;99.90;;;;;;5036755;28;20021;-71
2023/05/21 00:36:13;;;;;;;10.63;5.88;;;13.70;99.90;;;;;;5037861;28;20108;-72
2023/05/21 00:38:42;;;;;;;9.32;5.82;;;13.60;99.90;;;;;;5037880;28;20021;-73
2023/05/21 00:41:09;;;;;;;9.95;5.80;;;13.60;99.90;;;;;;5037873;28;20033;-71
2023/05/21 00:43:39;;;;;;;13.02;6.30;;;13.60;99.90;;;;;;5027577;28;20021;-72
2023/05/21 00:46:12;;;;;;;7.65;5.47;;;13.60;99.90;;;;;;5037241;28;20029;-73
2023/05/21 00:48:38;;;;;;;11.45;6.50;;;13.60;99.90;;;;;;5037717;28;20070;-72
2023/05/21 00:51:05;;;;;;;9.63;6.15;;;13.60;99.90;;;;;;5037534;28;20467;-73
2023/05/21 00:53:33;;;;;;;10.50;6.50;;;13.60;99.90;;;;;;5037755;28;20033;-72
2023/05/21 00:56:00;;;;;;;9.48;6.03;;;13.60;99.90;;;;;;5037469;28;20029;-72
2023/05/21 00:58:26;;;;;;;11.10;6.68;;;13.60;99.90;;;;;;5037572;28;20028;-72
2023/05/21 01:00:54;;;;;;;9.15;6.32;;;13.60;99.90;;;;;;5037012;28;20025;-72
2023/05/21 01:03:21;;;;;;;9.85;6.38;;;13.60;99.90;;;;;;5037592;28;20027;-72
2023/05/21 01:05:49;;;;;;;8.07;6.88;;;13.50;99.90;;;;;;5037281;28;20080;-72
2023/05/21 01:08:16;;;;;;;12.98;6.20;;;13.60;99.90;;;;;;5036130;28;20017;-73
2023/05/21 01:10:43;;;;;;;14.40;7.15;;;13.50;99.90;;;;;;5025335;28;20101;-72
2023/05/21 01:13:09;;;;;;;13.95;6.93;;;13.50;99.90;;;;;;5037383;28;20017;-73
2023/05/21 01:15:37;;;;;;;8.52;6.65;;;13.50;99.90;;;;;;5036761;28;20022;-73
2023/05/21 01:18:02;;;;;;;10.48;5.80;;;13.50;99.90;;;;;;5037301;28;20056;-73
2023/05/21 01:20:30;;;;;;;7.88;6.03;;;13.50;99.90;;;;;;5036901;28;20029;-73
2023/05/21 01:22:57;;;;;;;14.90;7.03;;;13.50;99.90;;;;;;5037325;28;20013;-73
2023/05/21 01:25:23;;;;;;;14.60;6.70;;;13.40;99.90;;;;;;5035588;28;20026;-73
2023/05/21 01:27:52;;;;;;;12.60;7.60;;;13.40;99.90;;;;;;5036469;28;20026;-73
2023/05/21 01:30:19;;;;;;;11.63;6.10;;;13.30;99.90;;;;;;5036865;28;20026;-73
2023/05/21 01:32:57;;;;;;;7.50;5.75;;;13.30;99.90;;;;;;5036904;28;20029;-73
2023/05/21 01:35:37;;;;;;;8.95;6.55;;;13.30;99.90;;;;;;5039621;28;20064;-72
2023/05/21 01:38:09;;;;;;;11.67;7.77;;;13.30;99.90;;;;;;5036867;28;20502;-73
2023/05/21 01:40:46;;;;;;;11.60;6.55;;;13.30;99.90;;;;;;5037028;28;20056;-72
2023/05/21 01:43:14;;;;;;;10.52;6.43;;;13.30;99.90;;;;;;5036822;28;20017;-72
2023/05/21 01:45:42;;;;;;;11.52;6.80;;;13.30;99.90;;;;;;5036715;28;20493;-72
2023/05/21 01:48:11;;;;;;;11.32;5.95;;;13.20;99.90;;;;;;5036572;28;20028;-72
2023/05/21 01:50:37;;;;;;;10.93;6.40;;;13.20;99.90;;;;;;5036836;28;20450;-73
2023/05/21 01:53:04;;;;;;;11.55;6.88;;;13.10;99.90;;;;;;5035245;28;20020;-73
2023/05/21 01:55:30;;;;;;;11.27;6.18;;;13.10;99.90;;;;;;5036134;28;20026;-72
2023/05/21 01:57:58;;;;;;;11.77;6.93;;;13.10;99.90;;;;;;5036660;28;20022;-72
2023/05/21 02:00:28;;;;;;;8.82;6.35;;;13.10;99.90;;;;;;5036435;28;20417;-72
2023/05/21 02:02:53;;;;;;;16.87;7.90;;;13.10;99.90;;;;;;5036852;28;20025;-72
2023/05/21 02:05:19;;;;;;;9.88;6.22;;;13.10;99.90;;;;;;5036579;28;20017;-72
2023/05/21 02:07:46;;;;;;;11.10;6.63;;;13.10;99.90;;;;;;5035432;28;20117;-73
2023/05/21 02:10:12;;;;;;;10.00;6.50;;;13.10;99.90;;;;;;5028733;28;20031;-72
2023/05/21 02:12:38;;;;;;;9.90;6.75;;;13.10;99.90;;;;;;5036823;28;20493;-72
2023/05/21 02:15:04;;;;;;;10.02;6.72;;;13.10;99.90;;;;;;5035378;28;20022;-72
2023/05/21 02:17:32;;;;;;;9.05;6.82;;;13.00;99.90;;;;;;5036197;28;20026;-73
2023/05/21 02:20:10;;;;;;;11.95;6.70;;;13.00;99.90;;;;;;5035577;28;20486;-72
2023/05/21 02:22:37;;;;;;;10.25;6.88;;;13.10;99.90;;;;;;5036469;28;20033;-73
2023/05/21 02:25:03;;;;;;;12.88;6.93;;;13.10;99.90;;;;;;5036357;28;20013;-72
2023/05/21 02:27:31;;;;;;;8.98;7.10;;;13.00;99.90;;;;;;5035163;28;20030;-72
2023/05/21 02:29:56;;;;;;;13.98;7.30;;;13.00;99.90;;;;;;5036275;28;20071;-72
2023/05/21 02:32:22;;;;;;;11.68;7.47;;;13.00;99.90;;;;;;5035069;28;20029;-73
2023/05/21 02:34:48;;;;;;;8.90;7.22;;;13.00;99.90;;;;;;5036078;28;20116;-73
2023/05/21 02:37:14;;;;;;;12.93;7.05;;;13.00;99.90;;;;;;5036409;28;20025;-73
2023/05/21 02:39:40;;;;;;;9.15;7.00;;;13.00;99.90;;;;;;5037634;28;20068;-72
2023/05/21 02:42:05;;;;;;;13.13;6.55;;;13.00;99.90;;;;;;5039170;28;20061;-72
2023/05/21 02:44:31;;;;;;;12.35;7.78;;;13.00;99.90;;;;;;5040105;28;20020;-73
2023/05/21 02:46:57;;;;;;;11.75;7.07;;;13.00;99.90;;;;;;5039663;28;20367;-72
2023/05/21 02:49:22;;;;;;;14.30;7.68;;;13.00;99.90;;;;;;5038460;28;20493;-73
2023/05/21 02:51:48;;;;;;;11.25;7.05;;;13.00;99.90;;;;;;5038753;28;20081;-72
2023/05/21 02:54:14;;;;;;;8.73;6.35;;;13.00;99.90;;;;;;5040021;28;20037;-73
2023/05/21 02:56:40;;;;;;;11.82;6.53;;;13.00;99.90;;;;;;5039695;28;20030;-72
2023/05/21 02:59:05;;;;;;;9.95;7.20;;;13.00;99.90;;;;;;5039475;28;20478;-72
2023/05/21 03:01:31;;;;;;;8.98;6.63;;;13.00;99.90;;;;;;5038935;28;20355;-72
2023/05/21 03:03:57;;;;;;;11.30;6.70;;;13.00;99.90;;;;;;5039362;28;20018;-72
2023/05/21 03:06:22;;;;;;;11.93;6.90;;;13.00;99.90;;;;;;5038704;28;20030;-72
2023/05/21 03:08:48;;;;;;;11.82;7.15;;;13.10;99.90;;;;;;5037626;28;20033;-72
2023/05/21 03:11:14;;;;;;;10.52;6.85;;;13.00;99.90;;;;;;5038394;28;20037;-72
2023/05/21 03:13:41;;;;;;;11.45;7.45;;;13.00;99.90;;;;;;5039454;28;20037;-72
2023/05/21 03:16:07;;;;;;;12.00;7.25;;;13.10;99.90;;;;;;5038905;28;20018;-73
2023/05/21 03:18:32;;;;;;;15.05;7.47;;;13.00;99.90;;;;;;5039155;28;20050;-73
2023/05/21 03:20:58;;;;;;;11.55;7.15;;;13.00;99.90;;;;;;5039181;28;20017;-73
2023/05/21 03:23:24;;;;;;;9.45;7.22;;;13.10;99.90;;;;;;5038016;28;20036;-72
2023/05/21 03:25:52;;;;;;;12.30;7.80;;;13.00;99.90;;;;;;5039180;28;20144;-74
2023/05/21 03:28:17;;;;;;;9.18;6.57;;;13.10;99.90;;;;;;5038758;28;20099;-73
2023/05/21 03:30:45;;;;;;;12.38;7.20;;;13.00;99.90;;;;;;5036920;28;20034;-73
2023/05/21 03:33:12;;;;;;;10.48;6.95;;;13.10;99.90;;;;;;5039158;28;20048;-72
2023/05/21 03:35:38;;;;;;;12.57;7.68;;;13.00;99.90;;;;;;5038944;28;20056;-72
2023/05/21 03:38:04;;;;;;;12.98;7.72;;;13.00;99.90;;;;;;5039051;28;20021;-73
2023/05/21 03:40:29;;;;;;;10.15;7.20;;;13.00;99.90;;;;;;5037574;28;20029;-72
2023/05/21 03:42:55;;;;;;;12.25;7.15;;;13.00;99.90;;;;;;5039185;28;20029;-72
2023/05/21 03:45:21;;;;;;;10.80;7.60;;;13.00;99.90;;;;;;5038905;28;20026;-73
2023/05/21 03:47:47;;;;;;;13.85;6.82;;;13.00;99.90;;;;;;5038531;28;20034;-72
2023/05/21 03:50:13;;;;;;;12.23;6.82;;;13.00;99.90;;;;;;5036726;28;20053;-73
2023/05/21 03:52:39;;;;;;;13.20;8.80;;;13.00;99.90;;;;;;5038669;28;20030;-72
2023/05/21 03:55:05;;;;;;;10.07;6.88;;;13.00;99.90;;;;;;5037695;28;20053;-72
2023/05/21 03:57:31;;;;;;;8.85;6.60;;;13.00;99.90;;;;;;5038558;28;20029;-73
2023/05/21 03:59:57;;;;;;;11.45;6.88;;;13.00;99.90;;;;;;5038300;28;20021;-72
2023/05/21 04:02:26;;;;;;;11.07;7.55;;;13.00;99.90;;;;;;5038388;28;20056;-72
2023/05/21 04:04:52;;;;;;;18.52;9.27;;;13.00;99.90;;;;;;5038243;28;20014;-72
2023/05/21 04:07:21;;;;;;;14.50;7.28;;;13.00;99.90;;;;;;5038439;28;20036;-73
2023/05/21 04:09:47;;;;;;;10.90;7.15;;;13.00;99.90;;;;;;5034611;28;20017;-72
2023/05/21 04:12:12;;;;;;;11.32;7.30;;;13.00;99.90;;;;;;5038358;28;20032;-72
2023/05/21 04:14:38;;;;;;;12.70;7.88;;;13.00;99.90;;;;;;5038217;28;20026;-72
2023/05/21 04:17:04;;;;;;;13.23;8.18;;;13.00;99.90;;;;;;5038028;28;20030;-72
2023/05/21 04:19:33;;;;;;;11.30;7.80;;;13.00;99.90;;;;;;5036554;28;20042;-72
2023/05/21 04:21:58;;;;;;;14.52;7.97;;;13.00;99.90;;;;;;5035566;28;20037;-72
2023/05/21 04:24:24;;;;;;;12.95;9.00;;;13.00;99.90;;;;;;5028925;28;20025;-73
2023/05/21 04:26:50;;;;;;;13.77;8.20;;;13.00;99.90;;;;;;5033253;28;20497;-72
2023/05/21 04:29:20;;;;;;;14.55;8.50;;;13.00;99.90;;;;;;5038145;28;20048;-72
2023/05/21 04:31:47;;;;;;;14.57;8.02;;;13.00;99.90;;;;;;5037729;28;20025;-72
2023/05/21 04:34:16;;;;;;;15.18;7.38;;;12.90;99.90;;;;;;5037951;28;20025;-72
2023/05/21 04:36:44;;;;;;;14.57;7.45;;;13.00;99.90;;;;;;5037836;28;20024;-73
2023/05/21 04:39:13;;;;;;;11.38;8.00;;;12.90;99.90;;;;;;5036517;28;20046;-72
2023/05/21 04:41:39;;;;;;;11.93;7.93;;;12.90;99.90;;;;;;5037538;28;20785;-72
2023/05/21 04:44:08;;;;;;;9.30;6.68;;;13.00;99.90;;;;;;5037780;28;20025;-72
2023/05/21 04:46:34;;;;;;;9.40;7.47;;;12.90;99.90;;;;;;5037712;28;20556;-72
2023/05/21 04:49:03;;;;;;;11.15;7.22;;;12.90;99.90;;;;;;5037310;28;20413;-72
2023/05/21 04:51:31;;;;;;;10.32;7.72;;;13.00;99.90;;;;;;5037760;28;20026;-72
2023/05/21 04:53:57;;;;;;;13.68;7.55;;;13.00;99.90;;;;;;5037541;28;20028;-72
2023/05/21 04:56:26;;;;;;;14.15;7.43;;;13.00;99.90;;;;;;5037703;28;20083;-72
2023/05/21 04:58:53;;;;;;;14.68;8.23;;;13.00;99.90;;;;;;5030944;28;20097;-72
2023/05/21 05:01:22;;;;;;;11.48;7.85;;;12.90;99.90;;;;;;5035043;28;20025;-72
2023/05/21 05:03:48;;;;;;;12.32;8.35;;;12.90;99.90;;;;;;5023539;28;20080;-72
2023/05/21 05:06:14;;;;;;;13.90;7.85;;;12.90;99.90;;;;;;5037414;28;20035;-73
2023/05/21 05:08:40;;;;;;;12.57;8.13;;;12.90;99.90;;;;;;5037109;28;20025;-72
2023/05/21 05:11:06;;;;;;;10.90;7.72;;;12.90;99.90;;;;;;5026670;28;20029;-73
2023/05/21 05:13:33;;;;;;;15.50;9.70;;;12.90;99.90;;;;;;5035516;28;20056;-72
2023/05/21 05:15:59;;;;;;;15.77;7.80;;;12.90;99.90;;;;;;5035479;28;20025;-72
2023/05/21 05:18:25;;;;;;;18.88;10.52;;;12.90;99.90;;;;;;5035398;28;20529;-72
2023/05/21 05:20:50;;;;;;;11.52;7.85;;;12.90;99.90;;;;;;5036821;28;20494;-72
2023/05/21 05:23:16;;;;;;;18.70;8.52;;;12.90;99.90;;;;;;5037121;28;20385;-72
2023/05/21 05:25:42;;;;;;;14.23;8.15;;;12.90;99.90;;;;;;5029202;28;20029;-72
2023/05/21 05:28:07;;;;;;;11.43;8.45;;;12.90;99.90;;;;;;5036248;28;20073;-71
2023/05/21 05:30:34;;;;;;;11.23;8.57;;;13.00;99.90;;;;;;5035272;28;20036;-72
2023/05/21 05:33:00;;;;;;;12.57;8.40;;;13.00;99.90;;;;;;5036785;28;20025;-71
2023/05/21 05:35:26;;;;;;;15.07;8.18;;;13.00;99.90;;;;;;5032455;28;20029;-71
2023/05/21 05:37:51;;;;;;;13.60;7.32;;;13.00;99.90;;;;;;5035467;28;20053;-71
2023/05/21 05:40:17;;;;;;;16.52;7.43;;;13.00;99.90;;;;;;5036816;28;20034;-72
2023/05/21 05:42:43;;;;;;;14.25;7.85;;;13.00;99.90;;;;;;5035673;28;20038;-72
2023/05/21 05:45:10;;;;;;;13.90;8.50;;;13.00;99.90;;;;;;5035443;28;20025;-72
2023/05/21 05:47:35;;;;;;;15.68;7.85;;;13.00;99.90;;;;;;5036466;28;20063;-72
2023/05/21 05:50:01;;;;;;;12.85;7.88;;;13.00;99.90;;;;;;5036728;28;20029;-72
2023/05/21 05:52:26;;;;;;;10.43;7.45;;;13.10;99.90;;;;;;5036727;28;20029;-72
2023/05/21 05:54:52;;;;;;;14.00;8.40;;;13.10;99.90;;;;;;5036817;28;20022;-72
2023/05/21 05:57:18;;;;;;;9.70;7.30;;;13.10;99.90;;;;;;5035470;28;20026;-72
2023/05/21 05:59:43;;;;;;;18.05;8.27;;;13.10;99.90;;;;;;5036679;28;20033;-73
2023/05/21 06:02:09;;;;;;;15.93;7.63;;;13.00;99.90;;;;;;5036354;28;20061;-73
2023/05/21 06:04:35;;;;;;;12.85;8.20;;;13.10;99.90;;;;;;5035575;28;20161;-73
2023/05/21 06:07:00;;;;;;;17.23;8.55;;;13.00;99.90;;;;;;5035303;28;20064;-74
2023/05/21 06:09:26;;;;;;;12.07;8.25;;;13.00;99.90;;;;;;5033571;28;20056;-73
2023/05/21 06:11:51;;;;;;;13.82;7.75;;;13.00;99.90;;;;;;5036493;28;20029;-73
2023/05/21 06:14:17;;;;;;;12.90;7.40;;;13.00;99.90;;;;;;5039110;28;20032;-72
2023/05/21 06:16:43;;;;;;;13.93;8.15;;;13.00;99.90;;;;;;5025997;28;20108;-72
2023/05/21 06:19:08;;;;;;;14.82;8.13;;;13.00;99.90;;;;;;5039173;28;20049;-74
2023/05/21 06:21:34;;;;;;;8.30;7.40;;;13.00;99.90;;;;;;5034395;28;20034;-73
2023/05/21 06:24:00;;;;;;;14.23;8.07;;;13.00;99.90;;;;;;5039426;28;20037;-73
2023/05/21 06:26:25;;;;;;;13.80;7.63;;;13.10;99.90;;;;;;5038911;28;20032;-74
2023/05/21 06:28:51;;;;;;;19.98;9.13;;;13.10;99.90;;;;;;5040471;28;20025;-73
2023/05/21 06:31:17;;;;;;;13.32;8.32;;;13.20;99.90;;;;;;5039532;28;20032;-74
2023/05/21 06:33:43;;;;;;;16.83;9.60;;;13.20;99.90;;;;;;5040453;28;20037;-73
2023/05/21 06:36:09;;;;;;;13.50;8.55;;;13.20;99.90;;;;;;5039990;28;20036;-74
2023/05/21 06:38:35;;;;;;;15.70;8.20;;;13.20;99.90;;;;;;5040179;28;20029;-73
2023/05/21 06:41:02;;;;;;;15.40;9.15;;;13.20;99.90;;;;;;5040220;28;20439;-73
2023/05/21 06:43:28;;;;;;;13.32;8.30;;;13.30;99.90;;;;;;5040189;28;20021;-73
2023/05/21 06:45:54;;;;;;;12.40;7.47;;;13.30;99.90;;;;;;5038149;28;20024;-73
2023/05/21 06:48:19;;;;;;;15.57;8.65;;;13.40;99.90;;;;;;5040040;28;20451;-73
2023/05/21 06:50:45;;;;;;;22.70;9.77;;;13.50;99.90;;;;;;5038887;28;20096;-73
2023/05/21 06:53:15;;;;;;;16.70;8.55;;;13.60;99.90;;;;;;5038010;28;20517;-73
2023/05/21 06:55:43;;;;;;;12.93;8.05;;;13.80;99.90;;;;;;5036349;28;20394;-74
2023/05/21 06:58:10;;;;;;;12.13;7.88;;;13.90;99.90;;;;;;5037893;28;20046;-72
2023/05/21 07:00:35;;;;;;;12.85;8.80;;;13.90;99.90;;;;;;5033113;28;20022;-73
2023/05/21 07:03:01;;;;;;;14.05;8.13;;;13.90;99.90;;;;;;5037676;28;20375;-72
2023/05/21 07:05:27;;;;;;;16.50;9.45;;;14.00;99.90;;;;;;5037659;28;20537;-73
2023/05/21 07:07:52;;;;;;;14.63;10.07;;;14.00;99.90;;;;;;5039716;28;20109;-72
2023/05/21 07:10:18;;;;;;;13.75;9.27;;;14.00;99.90;;;;;;5031822;28;20026;-74
2023/05/21 07:12:44;;;;;;;19.10;9.18;;;14.10;99.90;;;;;;5039487;28;20030;-74
2023/05/21 07:15:10;;;;;;;20.92;10.35;;;14.10;99.90;;;;;;5039205;28;20076;-72
2023/05/21 07:17:36;;;;;;;17.23;9.73;;;14.20;99.90;;;;;;5038298;28;20414;-72
2023/05/21 07:20:05;;;;;;;11.23;7.93;;;14.30;99.90;;;;;;5038646;28;20037;-71
2023/05/21 07:22:31;;;;;;;9.45;8.43;;;14.30;99.90;;;;;;5038042;28;20076;-74
2023/05/21 07:24:56;;;;;;;16.17;8.80;;;14.30;99.90;;;;;;5036793;28;20029;-72
2023/05/21 07:27:22;;;;;;;13.85;8.40;;;14.40;99.90;;;;;;5039161;28;20021;-72
2023/05/21 07:29:48;;;;;;;16.48;8.27;;;14.40;99.90;;;;;;5039186;28;20025;-73
2023/05/21 07:32:13;;;;;;;15.93;8.77;;;14.40;99.90;;;;;;5038788;28;20061;-72
2023/05/21 07:34:39;;;;;;;16.25;8.40;;;14.40;99.90;;;;;;5038948;28;20037;-72
2023/05/21 07:37:04;;;;;;;16.02;8.40;;;14.50;99.90;;;;;;5038946;28;20109;-72
2023/05/21 07:39:30;;;;;;;9.88;8.00;;;14.50;99.90;;;;;;5038934;28;20037;-73
2023/05/21 07:41:56;;;;;;;13.13;8.32;;;14.50;99.90;;;;;;5038967;28;20025;-72
2023/05/21 07:44:23;;;;;;;16.95;9.45;;;14.40;99.90;;;;;;5038843;28;20067;-73
2023/05/21 07:46:48;;;;;;;15.82;8.63;;;14.30;99.90;;;;;;5038858;28;20030;-72
2023/05/21 07:49:15;;;;;;;15.18;7.93;;;14.30;99.90;;;;;;5038664;28;20063;-72
2023/05/21 07:51:42;;;;;;;16.33;9.18;;;14.30;99.90;;;;;;5038894;28;20017;-72
2023/05/21 07:54:08;;;;;;;13.63;8.85;;;14.30;99.90;;;;;;5038699;28;20033;-72
2023/05/21 07:56:34;;;;;;;13.88;8.13;;;14.40;99.90;;;;;;5038886;28;20025;-72
2023/05/21 07:59:00;;;;;;;14.15;9.18;;;14.50;99.90;;;;;;5038531;28;20079;-72
2023/05/21 08:01:28;;;;;;;14.98;8.55;;;14.60;99.90;;;;;;5038455;28;20100;-73
2023/05/21 08:03:54;;;;;;;12.82;8.88;;;14.70;99.90;;;;;;5038337;28;20539;-72
2023/05/21 08:06:21;;;;;;;12.73;8.43;;;14.90;99.90;;;;;;5038747;28;20030;-73
2023/05/21 08:08:46;;;;;;;13.23;7.95;;;15.00;99.90;;;;;;5037348;28;20025;-73
2023/05/21 08:11:12;;;;;;;15.70;8.00;;;15.00;99.90;;;;;;5027492;28;20018;-72
2023/05/21 08:13:38;;;;;;;15.82;9.10;;;15.10;99.90;;;;;;5038159;28;20101;-73
2023/05/21 08:16:04;;;;;;;15.98;9.35;;;15.20;99.90;;;;;;5038214;28;20032;-73
2023/05/21 08:18:30;;;;;;;17.27;7.40;;;15.20;99.90;;;;;;5037768;28;20107;-72
2023/05/21 08:20:56;;;;;;;14.45;8.65;;;15.20;99.90;;;;;;5038394;28;20490;-72
2023/05/21 08:23:22;;;;;;;12.98;8.93;;;15.20;99.90;;;;;;5038060;28;20018;-72
2023/05/21 08:25:47;;;;;;;16.23;9.75;;;15.30;99.90;;;;;;5038025;28;20018;-70
2023/05/21 08:28:13;;;;;;;11.15;9.00;;;15.40;99.90;;;;;;5037907;28;20068;-71
2023/05/21 08:30:39;;;;;;;12.10;9.02;;;15.50;99.90;;;;;;5037803;28;20060;-70
2023/05/21 08:33:04;;;;;;;14.40;8.60;;;15.70;99.90;;;;;;5026672;28;20027;-71
2023/05/21 08:35:30;;;;;;;13.15;8.95;;;15.80;99.90;;;;;;5037738;28;20033;-71
2023/05/21 08:37:56;;;;;;;17.52;8.02;;;15.90;99.90;;;;;;5036383;28;20025;-70
2023/05/21 08:40:21;;;;;;;16.45;8.60;;;15.90;99.90;;;;;;5037718;28;20025;-70
2023/05/21 08:42:48;;;;;;;16.50;8.15;;;15.80;99.90;;;;;;5036413;28;20083;-72
2023/05/21 08:45:19;;;;;;;17.80;7.88;;;16.00;99.90;;;;;;5037319;28;20014;-73
2023/05/21 08:47:45;;;;;;;12.48;8.20;;;16.00;99.90;;;;;;5036199;28;20103;-72
2023/05/21 08:50:13;;;;;;;14.57;9.52;;;16.00;99.90;;;;;;5035453;28;20033;-73
2023/05/21 08:52:39;;;;;;;10.98;8.50;;;16.20;99.90;;;;;;5036171;28;20037;-72
2023/05/21 08:55:06;;;;;;;11.45;8.18;;;16.30;99.90;;;;;;5037745;28;20025;-72
2023/05/21 08:57:32;;;;;;;15.50;8.50;;;16.30;99.90;;;;;;5037289;28;20029;-71
2023/05/21 08:59:58;;;;;;;10.75;7.38;;;16.30;99.90;;;;;;5037530;28;20462;-72
2023/05/21 09:02:24;;;;;;;11.48;8.23;;;16.60;99.90;;;;;;5037039;28;20026;-72
2023/05/21 09:04:55;;;;;;;11.32;7.60;;;16.80;99.90;;;;;;5036139;28;20021;-72
2023/05/21 09:07:29;;;;;;;14.05;7.72;;;17.00;99.90;;;;;;5036119;28;20036;-72
2023/05/21 09:10:02;;;;;;;12.55;7.97;;;17.10;99.90;;;;;;5036858;28;20078;-72
2023/05/21 09:12:28;;;;;;;13.35;8.00;;;17.10;99.90;;;;;;5035685;28;20021;-71
2023/05/21 09:14:57;;;;;;;17.73;8.45;;;17.10;99.90;;;;;;5037294;28;20028;-73
2023/05/21 09:17:23;;;;;;;12.30;7.95;;;17.20;99.90;;;;;;5036721;28;20114;-71
2023/05/21 09:20:25;;;;;;;13.27;7.43;;;17.30;99.90;;;;;;5037082;28;20025;-71
2023/05/21 09:22:51;;;;;;;17.35;7.28;;;17.30;99.90;;;;;;5045653;28;20033;-72
2023/05/21 09:25:28;;;;;;;12.73;8.23;;;17.20;99.90;;;;;;5036072;28;20029;-70
2023/05/21 09:27:56;;;;;;;13.75;7.60;;;17.30;99.90;;;;;;5037160;28;20025;-72
2023/05/21 09:30:22;;;;;;;14.23;6.78;;;17.40;99.90;;;;;;5052205;28;20021;-71
2023/05/21 09:32:58;;;;;;;14.43;7.38;;;17.40;99.90;;;;;;5035730;28;20569;-72
2023/05/21 09:35:24;;;;;;;10.85;6.93;;;17.50;99.90;;;;;;5036908;28;20018;-70
2023/05/21 09:37:52;;;;;;;13.00;6.75;;;17.50;99.90;;;;;;5035491;28;20087;-69
2023/05/21 09:40:21;;;;;;;11.38;6.18;;;17.60;99.90;;;;;;5035563;28;20021;-70
2023/05/21 09:42:54;;;;;;;10.23;7.30;;;17.70;99.90;;;;;;5036764;28;20077;-69
2023/05/21 09:45:24;;;;;;;13.13;7.00;;;17.70;99.90;;;;;;5026660;28;20108;-69
2023/05/21 09:47:52;;;;;;;11.23;6.30;;;17.80;99.90;;;;;;5037594;28;20029;-70
2023/05/21 09:50:22;;;;;;;7.57;5.82;;;17.90;99.90;;;;;;5043504;28;20117;-70
2023/05/21 09:52:49;;;;;;;9.93;7.18;;;17.90;99.90;;;;;;5043131;28;20025;-70
2023/05/21 09:55:16;;;;;;;11.00;6.53;;;17.80;99.90;;;;;;5043532;28;20041;-70
2023/05/21 09:57:49;;;;;;;9.65;5.50;;;17.50;99.90;;;;;;5041749;28;20088;-70
2023/05/21 10:00:17;;;;;;;11.30;6.38;;;17.50;99.90;;;;;;5043100;28;20524;-70
2023/05/21 10:02:47;;;;;;;9.77;6.18;;;17.40;99.90;;;;;;5043120;28;20018;-70
2023/05/21 10:05:14;;;;;;;9.80;6.85;;;17.40;99.90;;;;;;5032508;28;20479;-70
2023/05/21 10:07:51;;;;;;;9.95;6.32;;;17.30;99.90;;;;;;5039549;28;20025;-69
2023/05/21 10:10:23;;;;;;;14.25;6.72;;;17.30;99.90;;;;;;5036212;28;20554;-69
2023/05/21 10:12:58;;;;;;;10.88;7.38;;;17.20;99.90;;;;;;5043231;28;20486;-69
2023/05/21 10:15:26;;;;;;;10.05;6.28;;;17.10;99.90;;;;;;5042752;28;20028;-70
2023/05/21 10:17:54;;;;;;;11.82;7.75;;;17.10;99.90;;;;;;5043067;28;20053;-72
2023/05/21 10:20:21;;;;;;;10.27;7.05;;;17.10;99.90;;;;;;5041760;28;20033;-70
2023/05/21 10:22:47;;;;;;;11.15;6.47;;;17.20;99.90;;;;;;5043214;28;20017;-70
2023/05/21 10:25:13;;;;;;;13.75;6.70;;;17.40;99.90;;;;;;5042943;28;20049;-69
2023/05/21 10:27:39;;;;;;;9.88;6.13;;;17.40;99.90;;;;;;5043169;28;20489;-70
2023/05/21 10:30:06;;;;;;;11.68;6.72;;;17.40;99.90;;;;;;5042517;28;20033;-70
2023/05/21 10:32:32;;;;;;;9.73;6.43;;;17.40;99.90;;;;;;5043190;28;20037;-70
2023/05/21 10:34:59;;;;;;;11.35;6.70;;;17.40;99.90;;;;;;5040726;28;20045;-70
2023/05/21 10:37:26;;;;;;;10.02;6.43;;;17.40;99.90;;;;;;5043072;28;20095;-71
2023/05/21 10:39:52;;;;;;;10.88;5.75;;;17.20;99.90;;;;;;5039622;28;20022;-70
2023/05/21 10:42:30;;;;;;;12.25;7.13;;;17.20;99.90;;;;;;5043136;28;20418;-70
2023/05/21 10:45:24;;;;;;;16.17;7.22;;;17.20;99.90;;;;;;5042653;28;20109;-70
2023/05/21 10:47:52;;;;;;;13.25;6.75;;;17.20;99.90;;;;;;5042857;28;20013;-70
2023/05/21 10:50:27;;;;;;;9.95;6.97;;;17.20;99.90;;;;;;5042627;28;20033;-70
2023/05/21 10:53:18;;;;;;;11.85;6.70;;;17.30;99.90;;;;;;5042813;28;20029;-70
2023/05/21 10:56:22;;;;;;;9.70;6.32;;;17.50;99.90;;;;;;5037933;28;20045;-70
2023/05/21 10:59:06;;;;;;;8.68;6.68;;;17.60;99.90;;;;;;5043082;28;20443;-70
2023/05/21 11:01:36;;;;;;;9.43;6.45;;;18.00;99.90;;;;;;5039640;28;20441;-70
2023/05/21 11:04:03;;;;;;;9.73;6.63;;;18.00;99.90;;;;;;5039656;28;20021;-69
2023/05/21 11:06:29;;;;;;;8.10;5.95;;;18.00;99.90;;;;;;5039756;28;20022;-68
2023/05/21 11:08:54;;;;;;;8.90;5.60;;;18.10;99.90;;;;;;5037380;28;20029;-68
2023/05/21 11:11:49;;;;;;;11.55;5.80;;;18.00;99.90;;;;;;5030208;28;20029;-69
2023/05/21 11:14:36;;;;;;;9.48;6.25;;;17.80;99.90;;;;;;5051113;28;20463;-69
2023/05/21 11:17:08;;;;;;;11.68;5.32;;;17.70;99.90;;;;;;5038903;28;20108;-69
2023/05/21 11:19:46;;;;;;;12.00;5.65;;;17.60;99.90;;;;;;5037666;28;20103;-69
2023/05/21 11:22:25;;;;;;;9.20;6.38;;;17.60;99.90;;;;;;5039335;28;20025;-68
2023/05/21 11:24:53;;;;;;;11.63;6.30;;;17.50;99.90;;;;;;5037970;28;20033;-69
2023/05/21 11:27:32;;;;;;;10.82;6.80;;;17.60;99.90;;;;;;5039153;28;20064;-69
2023/05/21 11:29:58;;;;;;;7.80;5.40;;;17.50;99.90;;;;;;5035028;28;20030;-69
2023/05/21 11:32:24;;;;;;;9.98;5.82;;;17.50;99.90;;;;;;5039334;28;20018;-69
2023/05/21 11:34:50;;;;;;;10.30;6.57;;;17.70;99.90;;;;;;5037615;28;20037;-69
2023/05/21 11:37:16;;;;;;;12.20;6.30;;;17.80;99.90;;;;;;5039016;28;20017;-69
2023/05/21 11:39:45;;;;;;;9.77;6.00;;;17.80;99.90;;;;;;5038847;28;20076;-69
2023/05/21 11:42:11;;;;;;;9.13;6.25;;;18.00;99.90;;;;;;5039072;28;20478;-69
2023/05/21 11:44:46;;;;;;;9.05;6.30;;;18.00;99.90;;;;;;5038927;28;20032;-68
2023/05/21 11:47:17;;;;;;;11.77;6.25;;;17.90;99.90;;;;;;5038703;28;20017;-69
2023/05/21 11:49:44;;;;;;;11.50;5.97;;;17.80;99.90;;;;;;5038501;28;20470;-69
2023/05/21 11:52:11;;;;;;;9.70;6.13;;;17.60;99.90;;;;;;5038935;28;20379;-69
2023/05/21 11:54:45;;;;;;;13.85;7.25;;;17.50;99.90;;;;;;5038687;28;20025;-69
2023/05/21 11:57:13;;;;;;;8.18;6.00;;;17.40;99.90;;;;;;5037435;28;20447;-69
2023/05/21 11:59:40;;;;;;;8.10;5.93;;;17.30;99.90;;;;;;5038492;28;20018;-69
2023/05/21 12:02:06;;;;;;;11.65;6.38;;;17.10;99.90;;;;;;5038147;28;20021;-69
2023/05/21 12:04:36;;;;;;;11.50;6.55;;;17.00;99.90;;;;;;5038415;28;20071;-69
2023/05/21 12:07:08;;;;;;;11.07;6.97;;;16.70;99.90;;;;;;5038517;28;20496;-69
2023/05/21 12:09:47;;;;;;;11.52;7.25;;;16.70;99.90;;;;;;5027829;28;20087;-69
2023/05/21 12:12:21;;;;;;;13.25;7.15;;;16.60;99.90;;;;;;5035362;28;20018;-69
2023/05/21 12:14:51;;;;;;;12.18;7.20;;;16.60;99.90;;;;;;5038093;28;20513;-69
2023/05/21 12:17:21;;;;;;;12.35;7.80;;;16.50;99.90;;;;;;5038011;28;20029;-69
2023/05/21 12:19:48;;;;;;;;;;;16.30;99.90;;;;;;5037142;28;20029;-69
2023/05/21 12:22:15;;;;;;;8.05;6.63;;;16.30;99.90;;;;;;5038130;28;19905;-69
2023/05/21 12:24:42;;;;;;;12.05;7.70;;;16.30;99.90;;;;;;5037809;28;20026;-69
2023/05/21 12:27:09;;;;;;;14.07;8.27;;;16.20;99.90;;;;;;5038255;28;20044;-69
2023/05/21 12:29:37;;;;;;;11.18;7.35;;;16.30;99.90;;;;;;5038086;28;20421;-69
2023/05/21 12:32:07;;;;;;;8.80;7.85;;;16.40;99.90;;;;;;5036310;28;20106;-69
2023/05/21 12:34:53;;;;;;;11.52;7.50;;;16.30;99.90;;;;;;5036530;28;20508;-69
2023/05/21 12:37:34;;;;;;;9.98;7.28;;;16.40;99.90;;;;;;5026548;28;20036;-69
2023/05/21 12:40:03;;;;;;;13.38;7.82;;;16.60;99.90;;;;;;5036398;28;20021;-69
2023/05/21 12:42:34;;;;;;;10.70;7.65;;;16.70;99.90;;;;;;5037983;28;20021;-69